Cordero, Nevada
Current Conditions -  °F | °C
As of 6:56 PM on Monday 20 Oct 2014 (Local Time) from KWMC Reporting Station
Clear Clear  
Wind Chill: 61°   Ceiling: Unl
Heat Index: 61°   Visibility: 10mi
Dew Point: 30°   Wind: 10mph
Humidity: 31%   Direction: 230°SW
Pressure: 29.8"   Gusts: NA
Location:  41.9814°N, 117.672°W
Report Text: KWMC 210156Z AUTO 23009KT 10SM CLR 16/M01 A2980 RMK AO2 SLP082 T01611011
Loading
Personal Weather Stations






























Interactive Weather Map
Tropical Storm Tracking
New forecast layout! Learn more

10-Day Weather Forecast

Advertisements
Track Severe Weather on mobile